Time;durP1;ratioP1;P1;durP2;ratioP2;P2;SDS_P1;SDS_P2;PMS_P1;PMS_P2;Temp;Humidity;BMP_temperature;BMP_pressure;BME280_temperature;BME280_humidity;BME280_pressure;Samples;Min_cycle;Max_cycle;Signal;HPM_P1;HPM_P2
2021/03/23 00:03:21;;;;;;;20.25;12.48;;;4.80;99.90;;;;;;5066435;28;20028;-69
2021/03/23 00:06:27;;;;;;;22.95;12.35;;;4.60;99.90;;;;;;5065133;28;20040;-69
2021/03/23 00:09:25;;;;;;;26.15;14.32;;;4.60;99.90;;;;;;5080986;28;20062;-69
2021/03/23 00:12:10;;;;;;;24.70;14.23;;;4.50;99.90;;;;;;5085832;28;20035;-68
2021/03/23 00:14:54;;;;;;;24.73;14.20;;;4.60;99.90;;;;;;5070974;28;20040;-69
2021/03/23 00:17:39;;;;;;;25.48;14.13;;;4.60;99.90;;;;;;5079100;28;20551;-69
2021/03/23 00:20:23;;;;;;;29.63;14.80;;;4.60;99.90;;;;;;5078476;28;20062;-69
2021/03/23 00:23:08;;;;;;;27.85;14.70;;;4.50;99.90;;;;;;5087102;28;20040;-69
2021/03/23 00:25:53;;;;;;;26.35;15.18;;;4.50;99.90;;;;;;5070506;28;20088;-69
2021/03/23 00:28:57;;;;;;;25.77;14.63;;;4.50;99.90;;;;;;5065473;28;20040;-69
2021/03/23 00:32:06;;;;;;;26.00;14.32;;;4.40;99.90;;;;;;5077402;28;20052;-70
2021/03/23 00:35:11;;;;;;;22.85;13.13;;;4.50;99.90;;;;;;5069137;28;20036;-69
2021/03/23 00:38:05;;;;;;;23.83;12.93;;;4.50;99.90;;;;;;5083589;28;20523;-69
2021/03/23 00:40:51;;;;;;;22.50;12.05;;;4.50;99.90;;;;;;5068994;28;20024;-70
2021/03/23 00:43:40;;;;;;;22.98;11.90;;;4.40;99.90;;;;;;5070572;28;20035;-69
2021/03/23 00:46:29;;;;;;;27.33;12.63;;;4.40;99.90;;;;;;5070578;28;20032;-69
2021/03/23 00:49:13;;;;;;;33.67;15.68;;;4.40;99.90;;;;;;5070625;28;20638;-69
2021/03/23 00:51:57;;;;;;;30.08;16.75;;;4.40;99.90;;;;;;5085266;28;20032;-69
2021/03/23 00:54:51;;;;;;;28.48;14.90;;;4.40;99.90;;;;;;5069932;28;20025;-69
2021/03/23 00:57:36;;;;;;;26.75;14.23;;;4.50;99.90;;;;;;5069777;28;20060;-69
2021/03/23 01:00:21;;;;;;;25.25;14.45;;;4.60;99.90;;;;;;5062836;28;20090;-69
2021/03/23 01:03:05;;;;;;;22.23;12.10;;;4.70;99.90;;;;;;5061067;28;20070;-69
2021/03/23 01:05:50;;;;;;;21.23;12.20;;;4.70;99.90;;;;;;5085028;28;20059;-69
2021/03/23 01:08:36;;;;;;;23.52;13.57;;;4.70;99.90;;;;;;5069421;28;20032;-69
2021/03/23 01:11:20;;;;;;;26.80;14.43;;;4.60;99.90;;;;;;5069622;28;20059;-69
2021/03/23 01:14:04;;;;;;;27.83;14.45;;;4.60;99.90;;;;;;5069804;28;20037;-68
2021/03/23 01:16:48;;;;;;;27.35;12.63;;;4.60;99.90;;;;;;5085171;28;20032;-68
2021/03/23 01:19:43;;;;;;;21.08;12.52;;;4.70;99.90;;;;;;5068287;28;20113;-68
2021/03/23 01:22:27;;;;;;;24.45;13.63;;;4.70;99.90;;;;;;5069778;28;20094;-68
2021/03/23 01:25:12;;;;;;;19.13;11.20;;;4.70;99.90;;;;;;5065080;28;20119;-68
2021/03/23 01:27:57;;;;;;;22.88;11.15;;;4.70;99.90;;;;;;5085131;28;20436;-68
2021/03/23 01:30:41;;;;;;;21.45;13.35;;;4.70;99.90;;;;;;5084126;28;20043;-68
2021/03/23 01:33:25;;;;;;;23.55;13.07;;;4.60;99.90;;;;;;5085066;28;20097;-68
2021/03/23 01:36:10;;;;;;;24.27;12.05;;;4.60;99.90;;;;;;5069832;28;20045;-68
2021/03/23 01:38:54;;;;;;;24.20;12.20;;;4.60;99.90;;;;;;5052675;28;20028;-68
2021/03/23 01:41:38;;;;;;;24.15;13.05;;;4.60;99.90;;;;;;5084682;28;20426;-68
2021/03/23 01:44:22;;;;;;;26.90;13.60;;;4.50;99.90;;;;;;5079245;28;20048;-68
2021/03/23 01:47:26;;;;;;;23.75;12.38;;;4.50;99.90;;;;;;5064159;28;20489;-68
2021/03/23 01:50:11;;;;;;;22.83;12.88;;;4.50;99.90;;;;;;5074615;28;20127;-68
2021/03/23 01:53:08;;;;;;;25.67;12.43;;;4.50;99.90;;;;;;5058277;28;20020;-68
2021/03/23 01:55:52;;;;;;;18.85;11.68;;;4.50;99.90;;;;;;5059869;28;20400;-68
2021/03/23 01:58:40;;;;;;;22.73;12.48;;;4.60;99.90;;;;;;5078434;28;20035;-67
2021/03/23 02:01:23;;;;;;;22.88;13.60;;;4.50;99.90;;;;;;5060831;28;20166;-68
2021/03/23 02:04:08;;;;;;;23.77;13.48;;;4.40;99.90;;;;;;5059761;28;20093;-68
2021/03/23 02:06:52;;;;;;;25.50;14.20;;;4.30;99.90;;;;;;5058249;28;20124;-68
2021/03/23 02:09:37;;;;;;;24.10;13.65;;;4.30;99.90;;;;;;5048889;28;20086;-68
2021/03/23 02:12:26;;;;;;;25.33;14.40;;;4.30;99.90;;;;;;5074981;28;20049;-68
2021/03/23 02:15:11;;;;;;;27.73;14.15;;;4.30;99.90;;;;;;5065402;28;20232;-68
2021/03/23 02:18:11;;;;;;;28.63;15.23;;;4.20;99.90;;;;;;5079203;28;20036;-68
2021/03/23 02:21:08;;;;;;;26.90;14.13;;;4.20;99.90;;;;;;5049995;28;20277;-68
2021/03/23 02:24:05;;;;;;;22.65;12.73;;;4.30;99.90;;;;;;5074504;28;20082;-68
2021/03/23 02:26:49;;;;;;;26.15;12.55;;;4.30;99.90;;;;;;5072251;28;20080;-68
2021/03/23 02:29:34;;;;;;;26.30;14.07;;;4.30;99.90;;;;;;5052312;28;20110;-68
2021/03/23 02:32:18;;;;;;;25.20;12.77;;;4.30;99.90;;;;;;5083599;28;20488;-68
2021/03/23 02:35:11;;;;;;;22.58;11.32;;;4.20;99.90;;;;;;5064907;28;20028;-68
2021/03/23 02:37:56;;;;;;;22.73;12.52;;;4.30;99.90;;;;;;5048744;28;20508;-68
2021/03/23 02:40:41;;;;;;;22.13;10.70;;;4.30;99.90;;;;;;5095517;28;20153;-68
2021/03/23 02:43:26;;;;;;;19.77;11.15;;;4.30;99.90;;;;;;5067034;28;20029;-68
2021/03/23 02:46:11;;;;;;;23.83;10.30;;;4.40;99.90;;;;;;5068943;28;20035;-68
2021/03/23 02:48:55;;;;;;;17.55;10.45;;;4.40;99.90;;;;;;5084656;28;20397;-68
2021/03/23 02:51:40;;;;;;;20.80;11.38;;;4.40;99.90;;;;;;5084566;28;20044;-67
2021/03/23 02:54:29;;;;;;;24.63;11.10;;;4.40;99.90;;;;;;5068600;28;20111;-68
2021/03/23 02:57:14;;;;;;;27.15;13.45;;;4.40;99.90;;;;;;5082961;28;20065;-68
2021/03/23 03:00:18;;;;;;;23.15;12.32;;;4.50;99.90;;;;;;5067051;28;20035;-68
2021/03/23 03:03:03;;;;;;;21.88;11.60;;;4.40;99.90;;;;;;5084234;28;20036;-68
2021/03/23 03:05:46;;;;;;;24.02;11.50;;;4.30;99.90;;;;;;5067165;28;20081;-68
2021/03/23 03:08:31;;;;;;;22.48;13.05;;;4.40;99.90;;;;;;5081771;28;20035;-68
2021/03/23 03:11:15;;;;;;;22.58;12.73;;;4.40;99.90;;;;;;5064693;28;20033;-68
2021/03/23 03:14:00;;;;;;;20.80;12.32;;;4.40;99.90;;;;;;5084164;28;20131;-68
2021/03/23 03:16:45;;;;;;;20.67;12.38;;;4.50;99.90;;;;;;5072365;28;20043;-67
2021/03/23 03:19:43;;;;;;;21.67;11.63;;;4.50;99.90;;;;;;5070720;28;20086;-67
2021/03/23 03:22:27;;;;;;;20.15;11.15;;;4.50;99.90;;;;;;5072151;28;20044;-68
2021/03/23 03:25:14;;;;;;;18.92;10.25;;;4.50;99.90;;;;;;5070913;28;20532;-68
2021/03/23 03:27:58;;;;;;;18.85;11.65;;;4.40;99.90;;;;;;5042185;28;20126;-68
2021/03/23 03:30:42;;;;;;;20.65;11.82;;;4.40;99.90;;;;;;5045573;28;20038;-67
2021/03/23 03:33:27;;;;;;;20.52;11.48;;;4.30;99.90;;;;;;5086697;28;20499;-68
2021/03/23 03:36:12;;;;;;;29.83;14.15;;;4.30;99.90;;;;;;5050846;28;20036;-68
2021/03/23 03:38:57;;;;;;;27.55;13.02;;;4.20;99.90;;;;;;5071202;28;20073;-68
2021/03/23 03:41:41;;;;;;;25.00;13.55;;;4.20;99.90;;;;;;5070738;28;20035;-68
2021/03/23 03:44:25;;;;;;;16.95;10.18;;;4.20;99.90;;;;;;5072136;28;20099;-68
2021/03/23 03:47:11;;;;;;;23.20;12.07;;;4.20;99.90;;;;;;5071365;28;20086;-68
2021/03/23 03:49:55;;;;;;;20.50;12.80;;;4.00;99.90;;;;;;5085891;28;20098;-67
2021/03/23 03:52:39;;;;;;;25.15;13.00;;;4.00;99.90;;;;;;5070120;28;20024;-68
2021/03/23 03:55:34;;;;;;;21.65;12.93;;;4.00;99.90;;;;;;5052500;28;20075;-68
2021/03/23 03:58:34;;;;;;;25.65;13.05;;;4.00;99.90;;;;;;5069636;28;20078;-68
2021/03/23 04:01:19;;;;;;;18.25;10.70;;;4.00;99.90;;;;;;5071230;28;20099;-68
2021/03/23 04:04:03;;;;;;;22.70;11.68;;;4.10;99.90;;;;;;5071206;28;20032;-68
2021/03/23 04:06:47;;;;;;;23.40;12.93;;;4.10;99.90;;;;;;5077259;28;20445;-68
2021/03/23 04:09:31;;;;;;;19.35;11.45;;;4.00;99.90;;;;;;5069536;28;20040;-68
2021/03/23 04:12:16;;;;;;;19.30;10.90;;;4.10;99.90;;;;;;5054025;28;20032;-68
2021/03/23 04:15:00;;;;;;;20.75;10.20;;;4.10;99.90;;;;;;5086619;28;20043;-68
2021/03/23 04:17:44;;;;;;;26.85;13.07;;;4.10;99.90;;;;;;5076790;28;20043;-67
2021/03/23 04:20:29;;;;;;;22.58;12.25;;;4.00;99.90;;;;;;5071283;28;20026;-67
2021/03/23 04:23:27;;;;;;;21.45;10.77;;;4.10;99.90;;;;;;5052187;28;20078;-68
2021/03/23 04:26:13;;;;;;;22.50;11.23;;;4.10;99.90;;;;;;5068125;28;20086;-68
2021/03/23 04:28:57;;;;;;;23.90;12.80;;;4.10;99.90;;;;;;5069791;28;20032;-67
2021/03/23 04:31:43;;;;;;;20.58;12.15;;;4.00;99.90;;;;;;5053336;28;20063;-68
2021/03/23 04:34:27;;;;;;;22.42;11.10;;;4.00;99.90;;;;;;5070869;28;20028;-68
2021/03/23 04:37:11;;;;;;;25.05;11.65;;;4.00;99.90;;;;;;5068826;28;20032;-68
2021/03/23 04:39:56;;;;;;;17.67;10.63;;;4.00;99.90;;;;;;5085682;28;20096;-67
2021/03/23 04:42:40;;;;;;;24.70;12.07;;;4.00;99.90;;;;;;5084996;28;20055;-68
2021/03/23 04:45:24;;;;;;;22.55;12.50;;;4.00;99.90;;;;;;5066141;28;20063;-68
2021/03/23 04:48:29;;;;;;;19.63;11.30;;;4.00;99.90;;;;;;5068839;28;20033;-68
2021/03/23 04:51:33;;;;;;;23.60;12.55;;;4.00;99.90;;;;;;5057856;28;20040;-68
2021/03/23 04:54:38;;;;;;;22.63;12.32;;;3.90;99.90;;;;;;5068125;28;20045;-68
2021/03/23 04:57:23;;;;;;;22.00;11.07;;;3.90;99.90;;;;;;5069010;28;20067;-68
2021/03/23 05:00:11;;;;;;;28.20;12.55;;;3.90;99.90;;;;;;5068905;28;20031;-68
2021/03/23 05:02:55;;;;;;;22.60;13.35;;;3.80;99.90;;;;;;5069321;28;20070;-69
2021/03/23 05:05:40;;;;;;;24.40;11.02;;;3.90;99.90;;;;;;5052282;28;20136;-68
2021/03/23 05:08:25;;;;;;;20.33;11.85;;;3.90;99.90;;;;;;5068015;28;20039;-68
2021/03/23 05:11:11;;;;;;;25.75;11.73;;;4.00;99.90;;;;;;5061496;28;20039;-68
2021/03/23 05:13:58;;;;;;;27.30;12.40;;;3.90;99.90;;;;;;5068066;28;20103;-68
2021/03/23 05:16:43;;;;;;;23.20;12.20;;;3.90;99.90;;;;;;5054466;28;20031;-69
2021/03/23 05:19:27;;;;;;;20.08;10.68;;;4.00;99.90;;;;;;5063909;28;20131;-68
2021/03/23 05:22:11;;;;;;;19.55;10.32;;;4.00;99.90;;;;;;5060845;28;20052;-69
2021/03/23 05:24:55;;;;;;;24.30;11.60;;;4.00;99.90;;;;;;5076606;28;20047;-68
2021/03/23 05:27:40;;;;;;;21.98;11.80;;;3.90;99.90;;;;;;5067643;28;20037;-68
2021/03/23 05:30:24;;;;;;;21.38;10.95;;;3.80;99.90;;;;;;5069204;28;20037;-68
2021/03/23 05:33:10;;;;;;;20.55;10.95;;;3.90;99.90;;;;;;5074134;28;20056;-68
2021/03/23 05:36:01;;;;;;;20.30;10.68;;;3.90;99.90;;;;;;5051659;28;20316;-68
2021/03/23 05:38:45;;;;;;;21.15;10.70;;;4.00;99.90;;;;;;5049278;28;20086;-67
2021/03/23 05:42:02;;;;;;;24.85;12.50;;;4.10;99.90;;;;;;5083718;28;20101;-68
2021/03/23 05:44:51;;;;;;;22.20;12.52;;;4.10;99.90;;;;;;5085828;28;20032;-68
2021/03/23 05:48:16;;;;;;;22.77;11.07;;;4.00;99.90;;;;;;5066604;28;20025;-68
2021/03/23 05:51:43;;;;;;;19.70;10.48;;;4.10;99.90;;;;;;5067926;28;20021;-68
2021/03/23 05:55:08;;;;;;;25.85;11.52;;;4.10;99.90;;;;;;5052133;28;20105;-68
2021/03/23 05:57:54;;;;;;;;;;;4.10;99.90;;;;;;5070459;28;20148;-68
2021/03/23 06:00:39;;;;;;;24.45;12.65;;;4.10;99.90;;;;;;5068119;28;19942;-68
2021/03/23 06:03:42;;;;;;;24.05;11.32;;;4.20;99.90;;;;;;5064337;28;20442;-68
2021/03/23 06:06:49;;;;;;;20.42;11.10;;;4.40;99.90;;;;;;5068728;28;20036;-68
2021/03/23 06:09:36;;;;;;;18.33;10.68;;;4.40;99.90;;;;;;5080907;28;20527;-68
2021/03/23 06:12:46;;;;;;;25.50;12.35;;;4.50;99.90;;;;;;5067822;28;20112;-68
2021/03/23 06:16:15;;;;;;;19.45;10.40;;;4.50;99.90;;;;;;5068419;28;20040;-68
2021/03/23 06:19:54;;;;;;;20.98;11.93;;;4.70;99.90;;;;;;5051404;28;20201;-68
2021/03/23 06:22:59;;;;;;;22.40;12.65;;;4.70;99.90;;;;;;5084510;28;20079;-68
2021/03/23 06:25:51;;;;;;;21.50;11.93;;;4.80;99.90;;;;;;5055817;28;20549;-68
2021/03/23 06:28:55;;;;;;;24.52;13.20;;;4.90;99.90;;;;;;5069043;28;20029;-68
2021/03/23 06:32:01;;;;;;;29.13;13.23;;;5.00;99.90;;;;;;5069797;28;20039;-68
2021/03/23 06:35:13;;;;;;;29.88;13.82;;;5.00;99.90;;;;;;5050593;28;20037;-68
2021/03/23 06:38:15;;;;;;;24.52;12.82;;;5.00;99.90;;;;;;5043925;28;20127;-68
2021/03/23 06:41:09;;;;;;;27.67;13.85;;;5.00;99.90;;;;;;5053426;28;20029;-69
2021/03/23 06:44:18;;;;;;;26.55;13.70;;;5.00;99.90;;;;;;5074359;28;20059;-69
2021/03/23 06:47:04;;;;;;;23.50;13.48;;;5.10;99.90;;;;;;5057224;28;20040;-68
2021/03/23 06:49:48;;;;;;;28.40;12.93;;;5.20;99.90;;;;;;5073793;28;20043;-70
2021/03/23 06:52:32;;;;;;;25.50;13.10;;;5.30;99.90;;;;;;5072235;28;20064;-69
2021/03/23 06:55:23;;;;;;;27.65;13.40;;;5.30;99.90;;;;;;5073198;28;20527;-69
2021/03/23 06:58:30;;;;;;;25.40;13.02;;;5.40;99.90;;;;;;5071545;28;20040;-68
2021/03/23 07:01:25;;;;;;;29.00;15.10;;;5.50;99.90;;;;;;5087743;28;20063;-68
2021/03/23 07:04:34;;;;;;;27.60;14.27;;;5.60;99.90;;;;;;5068723;28;20037;-68
2021/03/23 07:07:21;;;;;;;24.10;14.63;;;5.60;99.90;;;;;;5070296;28;20051;-67
2021/03/23 07:10:22;;;;;;;25.60;13.93;;;5.70;99.90;;;;;;5070870;28;20035;-68
2021/03/23 07:13:27;;;;;;;27.33;14.18;;;5.90;99.90;;;;;;5071340;28;20093;-68
2021/03/23 07:16:11;;;;;;;25.52;14.90;;;6.00;99.90;;;;;;5068135;28;20124;-68
2021/03/23 07:19:09;;;;;;;26.85;16.25;;;6.10;99.90;;;;;;5070786;28;20138;-68
2021/03/23 07:22:05;;;;;;;29.40;14.85;;;6.10;99.90;;;;;;5074141;28;20036;-69
2021/03/23 07:24:56;;;;;;;28.35;16.05;;;5.80;99.90;;;;;;5072061;28;20500;-69
2021/03/23 07:27:40;;;;;;;31.77;15.55;;;5.90;99.90;;;;;;5072019;28;20401;-68
2021/03/23 07:30:30;;;;;;;29.40;16.20;;;6.00;99.90;;;;;;5039938;28;20102;-68
2021/03/23 07:33:52;;;;;;;28.67;15.93;;;6.10;99.90;;;;;;5072173;28;20024;-68
2021/03/23 07:37:05;;;;;;;27.75;15.45;;;6.20;99.90;;;;;;5054093;28;20090;-68
2021/03/23 07:40:03;;;;;;;33.30;16.60;;;6.10;99.90;;;;;;5048016;28;20140;-68
2021/03/23 07:43:15;;;;;;;28.48;15.25;;;6.10;99.90;;;;;;5081158;28;20065;-68
2021/03/23 07:46:13;;;;;;;34.45;16.88;;;6.40;99.90;;;;;;5070096;28;20108;-68
2021/03/23 07:49:06;;;;;;;31.83;17.77;;;6.60;99.90;;;;;;5069885;28;20306;-68
2021/03/23 07:52:01;;;;;;;29.90;15.38;;;6.50;99.90;;;;;;5085351;28;20119;-68
2021/03/23 07:54:45;;;;;;;29.45;15.98;;;6.70;99.90;;;;;;5054734;28;20032;-68
2021/03/23 07:57:50;;;;;;;28.00;15.93;;;6.80;99.90;;;;;;5070994;28;20123;-68
2021/03/23 08:01:20;;;;;;;30.67;16.25;;;7.00;99.90;;;;;;5070213;28;20029;-68
2021/03/23 08:04:36;;;;;;;27.15;16.27;;;7.20;99.90;;;;;;5071693;28;20115;-68
2021/03/23 08:07:49;;;;;;;26.92;15.95;;;7.20;99.90;;;;;;5053210;28;20307;-68
2021/03/23 08:10:41;;;;;;;31.15;15.40;;;7.10;99.90;;;;;;5055112;28;20102;-68
2021/03/23 08:13:36;;;;;;;29.98;15.32;;;7.00;99.90;;;;;;5069348;28;20109;-69
2021/03/23 08:16:44;;;;;;;30.52;16.88;;;7.10;99.90;;;;;;5069117;28;20046;-68
2021/03/23 08:19:41;;;;;;;27.10;16.13;;;7.30;99.90;;;;;;5050498;28;20116;-68
2021/03/23 08:22:54;;;;;;;24.98;14.85;;;7.40;99.90;;;;;;5070913;28;20081;-68
2021/03/23 08:25:46;;;;;;;;;;;7.60;99.90;;;;;;5071259;28;20482;-68
2021/03/23 08:28:30;;;;;;;22.73;13.68;;;7.60;99.90;;;;;;5070341;28;19992;-69
2021/03/23 08:31:43;;;;;;;25.95;14.70;;;7.90;99.90;;;;;;5052126;28;20503;-68
2021/03/23 08:34:33;;;;;;;23.75;13.40;;;8.10;99.90;;;;;;5051535;28;20129;-69
2021/03/23 08:37:34;;;;;;;21.95;12.55;;;8.10;99.90;;;;;;5066673;28;20445;-68
2021/03/23 08:41:00;;;;;;;28.70;14.73;;;8.20;99.90;;;;;;5051573;28;20035;-68
2021/03/23 08:43:45;;;;;;;24.40;15.13;;;8.50;99.90;;;;;;5051105;28;20036;-68
2021/03/23 08:46:34;;;;;;;24.05;14.65;;;8.70;99.90;;;;;;5066496;28;20082;-68
2021/03/23 08:49:27;;;;;;;24.95;14.82;;;8.70;99.90;;;;;;5079542;28;20420;-69
2021/03/23 08:52:27;;;;;;;21.65;13.13;;;8.90;99.90;;;;;;5052668;28;20504;-69
2021/03/23 08:55:44;;;;;;;26.08;14.73;;;8.90;99.90;;;;;;5052177;28;20094;-68
2021/03/23 08:58:51;;;;;;;23.08;12.93;;;9.10;99.90;;;;;;5069713;28;20024;-68
2021/03/23 09:01:56;;;;;;;20.25;13.13;;;9.50;99.90;;;;;;5068761;28;20519;-69
2021/03/23 09:05:02;;;;;;;16.98;10.50;;;9.70;99.90;;;;;;5070827;28;20040;-68
2021/03/23 09:07:46;;;;;;;19.23;12.30;;;9.60;99.90;;;;;;5052540;28;20087;-68
2021/03/23 09:10:54;;;;;;;21.00;12.60;;;9.30;99.90;;;;;;5066313;28;20093;-68
2021/03/23 09:13:38;;;;;;;20.17;11.23;;;9.10;99.90;;;;;;5032575;28;20473;-69
2021/03/23 09:16:42;;;;;;;17.55;10.52;;;9.10;99.90;;;;;;5049222;28;20048;-69
2021/03/23 09:19:30;;;;;;;16.42;9.80;;;9.00;99.90;;;;;;5045216;28;20044;-68
2021/03/23 09:22:20;;;;;;;18.27;10.23;;;9.10;99.90;;;;;;5085576;28;20115;-69
2021/03/23 09:25:46;;;;;;;14.80;9.45;;;9.20;99.90;;;;;;5048750;28;20482;-69
2021/03/23 09:28:54;;;;;;;20.23;11.82;;;9.10;99.90;;;;;;5056058;28;20572;-69
2021/03/23 09:32:00;;;;;;;23.15;11.63;;;9.00;99.90;;;;;;5069910;28;20052;-69
2021/03/23 09:35:22;;;;;;;19.13;11.45;;;9.00;99.90;;;;;;5069236;28;20521;-69
2021/03/23 09:38:38;;;;;;;21.23;12.32;;;9.10;99.90;;;;;;5068048;28;20044;-69
2021/03/23 09:41:38;;;;;;;19.73;10.80;;;9.20;99.90;;;;;;5069522;28;20063;-69
2021/03/23 09:44:23;;;;;;;21.23;11.38;;;9.30;99.90;;;;;;5070122;28;20496;-69
2021/03/23 09:47:39;;;;;;;19.30;10.65;;;9.40;99.90;;;;;;5069841;28;20094;-69
2021/03/23 09:50:29;;;;;;;21.10;12.73;;;9.10;99.90;;;;;;5069423;28;20032;-68
2021/03/23 09:53:44;;;;;;;25.10;13.90;;;9.10;99.90;;;;;;5068871;28;20058;-68
2021/03/23 09:56:37;;;;;;;26.75;14.02;;;9.10;99.90;;;;;;5070094;28;20043;-68
2021/03/23 09:59:26;;;;;;;22.87;13.37;;;9.20;99.90;;;;;;5069908;28;20193;-69
2021/03/23 10:02:32;;;;;;;23.95;12.88;;;9.30;99.90;;;;;;5079320;28;20719;-68
2021/03/23 10:05:31;;;;;;;19.73;11.68;;;9.20;99.90;;;;;;5051019;28;20089;-68
2021/03/23 10:08:20;;;;;;;24.38;11.48;;;9.70;99.90;;;;;;5069054;28;20036;-69
2021/03/23 10:11:13;;;;;;;21.23;10.88;;;10.00;99.90;;;;;;5068834;28;20043;-69
2021/03/23 10:14:35;;;;;;;16.37;10.37;;;10.40;99.90;;;;;;5066768;28;20028;-69
2021/03/23 10:17:34;;;;;;;16.50;10.75;;;10.60;99.90;;;;;;5050286;28;20103;-68
2021/03/23 10:20:21;;;;;;;14.45;9.93;;;10.90;99.90;;;;;;5068234;28;20055;-69
2021/03/23 10:23:06;;;;;;;18.05;10.75;;;11.10;99.90;;;;;;5089980;28;20028;-69
2021/03/23 10:25:52;;;;;;;15.48;10.10;;;10.60;99.90;;;;;;5050053;28;20044;-69
2021/03/23 10:28:40;;;;;;;15.00;9.85;;;10.50;99.90;;;;;;5064973;28;20040;-69
2021/03/23 10:31:37;;;;;;;14.52;8.77;;;10.40;99.90;;;;;;5068639;28;20035;-69
2021/03/23 10:34:31;;;;;;;16.92;10.13;;;10.40;99.90;;;;;;5072648;28;20546;-69
2021/03/23 10:37:19;;;;;;;;;;;10.50;99.90;;;;;;5053659;28;20025;-69
2021/03/23 10:40:35;;;;;;;20.58;9.55;;;10.50;99.90;;;;;;5067482;28;19920;-69
2021/03/23 10:43:41;;;;;;;16.98;9.85;;;10.60;99.90;;;;;;5067759;28;20039;-68
2021/03/23 10:46:47;;;;;;;16.60;8.98;;;10.50;99.90;;;;;;5062645;28;20033;-69
2021/03/23 10:49:47;;;;;;;22.58;10.57;;;10.50;99.90;;;;;;5072472;28;20033;-69
2021/03/23 10:52:32;;;;;;;20.98;11.10;;;10.60;99.90;;;;;;5068986;28;20055;-69
2021/03/23 10:55:19;;;;;;;18.60;9.95;;;10.50;99.90;;;;;;5064079;28;20048;-69
2021/03/23 10:58:18;;;;;;;14.40;9.07;;;10.50;99.90;;;;;;5068496;28;20039;-69
2021/03/23 11:01:20;;;;;;;17.23;9.40;;;10.20;99.90;;;;;;5068900;28;20101;-69
2021/03/23 11:04:17;;;;;;;18.50;10.07;;;10.50;99.90;;;;;;5069064;28;20559;-69
2021/03/23 11:07:23;;;;;;;15.60;9.43;;;10.80;99.90;;;;;;5068447;28;20099;-69
2021/03/23 11:10:10;;;;;;;16.38;9.50;;;10.50;99.90;;;;;;5067689;28;20619;-69
2021/03/23 11:12:54;;;;;;;19.60;11.07;;;10.60;99.90;;;;;;5068126;28;20047;-69
2021/03/23 11:15:42;;;;;;;16.35;9.82;;;10.70;99.90;;;;;;5084464;28;20094;-69
2021/03/23 11:18:48;;;;;;;27.48;11.07;;;11.20;99.90;;;;;;5067725;28;20033;-70
2021/03/23 11:21:58;;;;;;;17.23;10.60;;;11.90;99.90;;;;;;5072236;28;20044;-69
2021/03/23 11:25:05;;;;;;;17.75;10.18;;;11.80;99.90;;;;;;5086531;28;20061;-69
2021/03/23 11:28:15;;;;;;;20.33;11.27;;;11.50;99.90;;;;;;5063602;28;20054;-69
2021/03/23 11:31:02;;;;;;;16.95;10.95;;;10.90;99.90;;;;;;5065589;28;20525;-69
2021/03/23 11:33:47;;;;;;;19.58;10.52;;;10.50;99.90;;;;;;5070714;28;20067;-69
2021/03/23 11:36:31;;;;;;;16.48;10.68;;;10.40;99.90;;;;;;5072239;28;20397;-69
2021/03/23 11:39:16;;;;;;;19.67;10.75;;;10.70;99.90;;;;;;5071213;28;20066;-69
2021/03/23 11:42:04;;;;;;;19.60;11.30;;;11.00;99.90;;;;;;5069394;28;20350;-69
2021/03/23 11:44:49;;;;;;;16.83;9.48;;;11.10;99.90;;;;;;5072752;28;20102;-69
2021/03/23 11:47:42;;;;;;;17.65;10.25;;;11.30;99.90;;;;;;5087458;28;20047;-69
2021/03/23 11:50:33;;;;;;;20.50;10.10;;;11.10;99.90;;;;;;5053886;28;20624;-69
2021/03/23 11:53:18;;;;;;;19.13;10.75;;;10.50;99.90;;;;;;5069381;28;20039;-69
2021/03/23 11:56:02;;;;;;;16.48;9.65;;;10.10;99.90;;;;;;5075100;28;20048;-69
2021/03/23 11:58:47;;;;;;;19.33;10.45;;;10.30;99.90;;;;;;5091199;28;20031;-69
2021/03/23 12:01:32;;;;;;;19.85;11.05;;;9.90;99.90;;;;;;5070343;28;20039;-69
2021/03/23 12:04:17;;;;;;;20.08;11.85;;;9.40;99.90;;;;;;5053971;28;20619;-69
2021/03/23 12:07:48;;;;;;;21.02;11.27;;;9.50;99.90;;;;;;5069959;28;20040;-69
2021/03/23 12:11:02;;;;;;;20.92;10.75;;;9.80;99.90;;;;;;5071339;28;20032;-69
2021/03/23 12:14:18;;;;;;;18.15;10.88;;;9.70;99.90;;;;;;5066226;28;20059;-69
2021/03/23 12:17:09;;;;;;;18.42;11.20;;;9.70;99.90;;;;;;5071449;28;20078;-69
2021/03/23 12:19:59;;;;;;;19.20;11.32;;;9.80;99.90;;;;;;5052699;28;20033;-69
2021/03/23 12:22:43;;;;;;;21.63;11.10;;;10.00;99.90;;;;;;5067432;28;20119;-69
2021/03/23 12:25:33;;;;;;;16.20;9.70;;;10.10;99.90;;;;;;5064319;28;20028;-69
2021/03/23 12:28:17;;;;;;;17.30;10.88;;;10.60;99.90;;;;;;5071282;28;20103;-69
2021/03/23 12:31:01;;;;;;;16.63;9.75;;;10.80;99.90;;;;;;5070621;28;20043;-69
2021/03/23 12:33:46;;;;;;;16.42;10.48;;;11.00;99.90;;;;;;5063681;28;20051;-69
2021/03/23 12:36:31;;;;;;;16.65;10.65;;;11.20;99.90;;;;;;5071350;28;20052;-69
2021/03/23 12:39:19;;;;;;;19.08;10.57;;;11.20;99.90;;;;;;5052753;28;20032;-69
2021/03/23 12:42:05;;;;;;;15.80;9.68;;;11.20;99.90;;;;;;5070714;28;20485;-69
2021/03/23 12:44:50;;;;;;;19.75;11.07;;;11.30;99.90;;;;;;5066771;28;20116;-69
2021/03/23 12:47:35;;;;;;;19.35;10.43;;;11.50;99.90;;;;;;5045548;28;20047;-69
2021/03/23 12:50:20;;;;;;;19.48;11.50;;;11.40;99.90;;;;;;5052355;28;20028;-69
2021/03/23 12:53:07;;;;;;;14.95;9.82;;;11.30;99.90;;;;;;5052368;28;20044;-69
2021/03/23 12:55:56;;;;;;;18.55;10.63;;;11.40;99.90;;;;;;5070032;28;20131;-69
2021/03/23 12:58:47;;;;;;;16.17;9.93;;;11.50;99.90;;;;;;5066692;28;20114;-69
2021/03/23 13:01:31;;;;;;;17.27;10.85;;;11.80;99.90;;;;;;5064982;28;20572;-69
2021/03/23 13:04:15;;;;;;;18.90;11.23;;;11.80;99.90;;;;;;5069500;28;20052;-69
2021/03/23 13:07:38;;;;;;;17.35;10.35;;;11.60;99.90;;;;;;5052417;28;20039;-69
2021/03/23 13:10:38;;;;;;;16.75;10.38;;;11.80;99.90;;;;;;5090785;28;20074;-69
2021/03/23 13:14:03;;;;;;;21.23;10.50;;;11.80;99.90;;;;;;5070261;28;20025;-69
2021/03/23 13:17:11;;;;;;;17.25;10.23;;;12.00;99.90;;;;;;5049376;28;20029;-69
2021/03/23 13:20:12;;;;;;;16.98;9.88;;;12.20;99.90;;;;;;5072971;28;20058;-69
2021/03/23 13:23:02;;;;;;;17.63;9.88;;;12.50;99.90;;;;;;5063814;28;20628;-69
2021/03/23 13:25:51;;;;;;;15.68;9.90;;;12.70;99.90;;;;;;5065215;28;20039;-69
2021/03/23 13:29:08;;;;;;;17.75;10.85;;;13.00;99.90;;;;;;5068875;28;20401;-70
2021/03/23 13:31:52;;;;;;;19.00;11.13;;;13.50;99.90;;;;;;5062506;28;20040;-69
2021/03/23 13:34:38;;;;;;;17.60;10.68;;;13.30;99.90;;;;;;5051986;28;20109;-70
2021/03/23 13:37:33;;;;;;;16.58;10.55;;;13.40;98.90;;;;;;5069993;28;20082;-70
2021/03/23 13:40:26;;;;;;;18.92;11.02;;;13.10;99.90;;;;;;5051442;28;20036;-69
2021/03/23 13:43:16;;;;;;;18.58;10.65;;;13.00;99.50;;;;;;5051872;28;20607;-69
2021/03/23 13:46:02;;;;;;;17.52;9.93;;;12.70;99.90;;;;;;5051619;28;20465;-69
2021/03/23 13:48:47;;;;;;;20.98;11.77;;;12.50;99.90;;;;;;5068688;28;20036;-69
2021/03/23 13:51:32;;;;;;;23.98;12.93;;;12.30;99.90;;;;;;5031711;28;20601;-69
2021/03/23 13:54:37;;;;;;;21.30;11.82;;;12.40;99.90;;;;;;5059205;28;20033;-69
2021/03/23 13:57:41;;;;;;;20.02;11.40;;;12.00;99.90;;;;;;5061586;28;20032;-69
2021/03/23 14:00:49;;;;;;;27.55;12.38;;;12.50;99.90;;;;;;5067759;28;20020;-67
2021/03/23 14:03:53;;;;;;;23.23;12.57;;;12.80;99.90;;;;;;5041411;28;20021;-69
2021/03/23 14:06:51;;;;;;;18.40;11.13;;;13.20;99.40;;;;;;5055875;28;20036;-69
2021/03/23 14:09:45;;;;;;;18.33;10.80;;;13.60;99.80;;;;;;5054359;28;20454;-69
2021/03/23 14:12:52;;;;;;;17.73;9.80;;;13.80;97.30;;;;;;5069157;28;20064;-69
2021/03/23 14:15:56;;;;;;;17.85;11.35;;;13.90;99.90;;;;;;5069492;28;20033;-69
2021/03/23 14:18:41;;;;;;;22.38;11.95;;;13.80;99.70;;;;;;5078843;28;20079;-69
2021/03/23 14:21:28;;;;;;;19.05;10.27;;;14.30;99.90;;;;;;5031506;28;20071;-69
2021/03/23 14:24:15;;;;;;;19.27;11.23;;;15.10;97.80;;;;;;5053001;28;20028;-69
2021/03/23 14:26:59;;;;;;;19.42;12.18;;;15.30;92.90;;;;;;5051161;28;20063;-69
2021/03/23 14:29:48;;;;;;;21.63;13.43;;;14.90;86.20;;;;;;5050624;28;20052;-69
2021/03/23 14:32:33;;;;;;;48.40;25.60;;;14.70;92.30;;;;;;5078710;28;20032;-70
2021/03/23 14:35:18;;;;;;;17.63;10.52;;;14.10;96.10;;;;;;5049447;28;20132;-69
2021/03/23 14:38:03;;;;;;;33.67;21.77;;;14.10;95.50;;;;;;5068389;28;20033;-69
2021/03/23 14:40:50;;;;;;;24.20;12.70;;;14.20;95.40;;;;;;5049933;28;20107;-67
2021/03/23 14:43:55;;;;;;;18.38;11.18;;;14.40;95.90;;;;;;5083614;28;20029;-68
2021/03/23 14:46:40;;;;;;;17.90;11.50;;;14.80;91.90;;;;;;5050343;28;20468;-68
2021/03/23 14:49:24;;;;;;;18.35;10.32;;;14.80;94.60;;;;;;5033988;28;20051;-67
2021/03/23 14:52:16;;;;;;;17.98;10.88;;;14.60;94.70;;;;;;5075613;28;20147;-67